San Jose, Costa Rica
Current Conditions -  °F | °C
As of 4:00 PM on Monday 26 Jan 2015 (Local Time) from MROC Reporting Station
Few Clouds Few Clouds  
Wind Chill: 24°   Ceiling: Unl
Heat Index: 24°   Visibility: 6mi
Dew Point: 14°   Wind: 14mph
Humidity: 53%   Direction: 80°E
Pressure: 29.96"   Gusts: 25mph
Location:  10°N, 84.22°W
Report Text: MROC 262200Z 08012G22KT 9999 FEW030 24/14 A2996 NOSIG
Loading
Personal Weather Stations






























Interactive Weather Map New forecast layout! Learn more

10-Day Weather Forecast

Advertisements
Track Severe Weather on mobile